createdAt,value
2018-05-03T00:01:07.845Z,0.00
2018-05-03T00:02:07.735Z,0.00
2018-05-03T00:04:00.635Z,0.00
2018-05-03T00:05:00.599Z,0.00
2018-05-03T00:06:53.940Z,0.00
2018-05-03T00:07:53.883Z,0.00
2018-05-03T00:09:46.701Z,0.00
2018-05-03T00:10:46.665Z,0.00
2018-05-03T00:12:39.657Z,0.00
2018-05-03T00:13:39.703Z,0.00
2018-05-03T00:15:32.471Z,0.00
2018-05-03T00:16:32.403Z,0.00
2018-05-03T00:18:25.460Z,0.00
2018-05-03T00:19:25.299Z,0.00
2018-05-03T00:21:18.295Z,0.00
2018-05-03T00:22:18.234Z,0.00
2018-05-03T00:24:11.279Z,0.00
2018-05-03T00:25:11.251Z,0.00
2018-05-03T00:27:04.466Z,0.00
2018-05-03T00:28:04.359Z,0.00
2018-05-03T00:29:57.442Z,0.00
2018-05-03T00:30:57.428Z,0.00
2018-05-03T00:32:50.646Z,0.00
2018-05-03T00:33:50.564Z,0.00
2018-05-03T00:35:43.540Z,0.00
2018-05-03T00:36:43.483Z,0.00
2018-05-03T00:38:36.464Z,0.00
2018-05-03T00:39:36.424Z,0.00
2018-05-03T00:41:29.276Z,0.00
2018-05-03T00:42:29.217Z,0.00
2018-05-03T00:44:22.096Z,0.00
2018-05-03T00:45:22.000Z,0.00
2018-05-03T00:47:14.994Z,0.00
2018-05-03T00:48:14.958Z,0.00
2018-05-03T00:50:07.921Z,0.00
2018-05-03T00:51:07.881Z,0.00
2018-05-03T00:53:00.756Z,0.00
2018-05-03T00:54:00.672Z,0.00
2018-05-03T00:55:53.640Z,0.00
2018-05-03T00:56:53.619Z,0.00
2018-05-03T00:58:46.580Z,0.00
2018-05-03T00:59:46.529Z,0.00
2018-05-03T01:01:39.744Z,0.00
2018-05-03T01:02:39.640Z,0.00
2018-05-03T01:04:32.632Z,0.00
2018-05-03T01:05:32.569Z,0.00
2018-05-03T01:07:25.399Z,0.00
2018-05-03T01:08:25.429Z,0.00
2018-05-03T01:10:18.168Z,0.00
2018-05-03T01:11:18.126Z,0.00
2018-05-03T01:13:11.365Z,0.00
2018-05-03T01:14:11.296Z,0.00
2018-05-03T01:16:04.271Z,0.00
2018-05-03T01:17:04.246Z,0.00
2018-05-03T01:18:57.531Z,0.00
2018-05-03T01:19:57.443Z,0.00
2018-05-03T01:21:50.234Z,0.00
2018-05-03T01:22:50.199Z,0.00
2018-05-03T01:24:43.195Z,0.00
2018-05-03T01:25:43.200Z,0.00
2018-05-03T01:27:36.309Z,0.00
2018-05-03T01:28:36.271Z,0.00
2018-05-03T01:30:29.097Z,0.00
2018-05-03T01:31:29.040Z,0.00
2018-05-03T01:33:22.002Z,0.00
2018-05-03T01:34:22.065Z,0.00
2018-05-03T01:36:15.240Z,0.00
2018-05-03T01:37:15.119Z,0.00
2018-05-03T01:39:08.079Z,0.00
2018-05-03T01:40:08.027Z,0.00
2018-05-03T01:42:01.012Z,0.00
2018-05-03T01:43:00.967Z,0.00
2018-05-03T01:44:53.842Z,0.00
2018-05-03T01:45:53.792Z,0.00
2018-05-03T01:47:46.771Z,0.00
2018-05-03T01:48:46.730Z,0.00
2018-05-03T01:50:39.741Z,0.00
2018-05-03T01:51:39.698Z,0.00
2018-05-03T01:53:32.910Z,0.00
2018-05-03T01:54:32.834Z,0.00
2018-05-03T01:56:25.810Z,0.00
2018-05-03T01:57:25.762Z,0.00
2018-05-03T01:59:18.748Z,0.00
2018-05-03T02:00:18.697Z,0.00
2018-05-03T02:02:11.841Z,0.00
2018-05-03T02:03:11.758Z,0.00
2018-05-03T02:05:04.650Z,0.00
2018-05-03T02:06:04.522Z,0.00
2018-05-03T02:07:57.563Z,0.00
2018-05-03T02:08:57.513Z,0.00
2018-05-03T02:10:50.531Z,0.00
2018-05-03T02:11:50.406Z,0.00
2018-05-03T02:13:43.365Z,0.00
2018-05-03T02:14:43.330Z,0.00
2018-05-03T02:16:36.297Z,0.00
2018-05-03T02:17:36.266Z,0.00
2018-05-03T02:19:29.538Z,0.00
2018-05-03T02:20:29.412Z,0.00
2018-05-03T02:22:22.381Z,0.00
2018-05-03T02:23:22.332Z,0.00
2018-05-03T02:25:15.315Z,0.00
2018-05-03T02:26:15.277Z,0.00
2018-05-03T02:28:08.226Z,0.00
2018-05-03T02:29:08.128Z,0.00
2018-05-03T02:31:01.094Z,0.00
2018-05-03T02:32:01.068Z,0.00
2018-05-03T02:33:54.056Z,0.00
2018-05-03T02:34:54.027Z,0.00
2018-05-03T02:36:47.267Z,0.00
2018-05-03T02:37:47.143Z,0.00
2018-05-03T02:39:40.149Z,0.00
2018-05-03T02:40:40.105Z,0.00
2018-05-03T02:42:33.119Z,0.00
2018-05-03T02:43:33.072Z,0.00
2018-05-03T02:45:26.137Z,0.00
2018-05-03T02:46:26.098Z,0.00
2018-05-03T02:48:19.088Z,0.00
2018-05-03T02:49:19.154Z,0.00
2018-05-03T02:51:12.259Z,0.00
2018-05-03T02:52:12.150Z,0.00
2018-05-03T02:54:05.120Z,0.00
2018-05-03T02:55:05.082Z,0.00
2018-05-03T02:56:57.998Z,0.00
2018-05-03T02:57:58.014Z,0.00
2018-05-03T02:59:50.769Z,0.00
2018-05-03T03:00:50.729Z,0.00
2018-05-03T03:02:43.587Z,0.00
2018-05-03T03:03:43.556Z,0.00
2018-05-03T03:05:36.377Z,0.00
2018-05-03T03:06:36.321Z,0.00
2018-05-03T03:08:29.477Z,0.00
2018-05-03T03:09:29.532Z,0.00
2018-05-03T03:11:22.654Z,0.00
2018-05-03T03:12:22.570Z,0.00
2018-05-03T03:14:15.559Z,0.00
2018-05-03T03:15:15.497Z,0.00
2018-05-03T03:17:08.460Z,0.00
2018-05-03T03:18:08.435Z,0.00
2018-05-03T03:20:01.266Z,0.00
2018-05-03T03:21:01.207Z,0.00
2018-05-03T03:22:54.182Z,0.00
2018-05-03T03:23:54.151Z,0.00
2018-05-03T03:25:47.125Z,0.00
2018-05-03T03:26:47.086Z,0.00
2018-05-03T03:28:40.383Z,0.00
2018-05-03T03:29:40.218Z,0.00
2018-05-03T03:31:33.258Z,0.00
2018-05-03T03:32:33.194Z,0.00
2018-05-03T03:34:26.172Z,0.00
2018-05-03T03:35:26.125Z,0.00
2018-05-03T03:37:19.020Z,0.00
2018-05-03T03:38:18.969Z,0.00
2018-05-03T03:40:11.964Z,0.00
2018-05-03T03:41:11.899Z,0.00
2018-05-03T03:43:04.904Z,0.00
2018-05-03T03:44:04.883Z,0.00
2018-05-03T03:45:58.037Z,0.00
2018-05-03T03:46:57.992Z,4.00
2018-05-03T03:48:50.945Z,0.00
2018-05-03T03:49:50.917Z,4.00
2018-05-03T03:51:43.937Z,4.00
2018-05-03T03:52:43.858Z,4.00
2018-05-03T03:54:36.654Z,4.00
2018-05-03T03:55:36.621Z,8.00
2018-05-03T03:57:29.662Z,8.00
2018-05-03T03:58:29.599Z,12.00
2018-05-03T04:00:22.401Z,12.00
2018-05-03T04:01:22.365Z,16.00
2018-05-03T04:03:15.372Z,16.00
2018-05-03T04:04:15.300Z,16.00
2018-05-03T04:06:08.129Z,20.00
2018-05-03T04:07:08.079Z,20.00
2018-05-03T04:09:01.061Z,24.00
2018-05-03T04:10:01.014Z,32.00
2018-05-03T04:11:54.030Z,36.00
2018-05-03T04:12:53.972Z,40.00
2018-05-03T04:14:46.770Z,52.00
2018-05-03T04:15:46.758Z,56.00
2018-05-03T04:17:39.736Z,76.00
2018-05-03T04:18:39.644Z,84.00
2018-05-03T04:20:32.519Z,100.00
2018-05-03T04:21:32.426Z,100.00
2018-05-03T04:23:25.416Z,104.00
2018-05-03T04:24:25.363Z,104.00
2018-05-03T04:26:18.341Z,116.00
2018-05-03T04:27:18.311Z,124.00
2018-05-03T04:29:11.236Z,144.00
2018-05-03T04:30:11.121Z,152.00
2018-05-03T04:32:04.101Z,176.00
2018-05-03T04:33:04.066Z,192.00
2018-05-03T04:34:56.886Z,224.00
2018-05-03T04:35:56.840Z,240.00
2018-05-03T04:37:49.830Z,260.00
2018-05-03T04:38:49.785Z,276.00
2018-05-03T04:40:42.656Z,308.00
2018-05-03T04:41:42.595Z,332.00
2018-05-03T04:43:35.569Z,384.00
2018-05-03T04:44:35.528Z,416.00
2018-05-03T04:46:28.516Z,488.00
2018-05-03T04:47:28.549Z,532.00
2018-05-03T04:49:21.728Z,628.00
2018-05-03T04:50:21.590Z,672.00
2018-05-03T04:52:14.400Z,760.00
2018-05-03T04:53:14.376Z,792.00
2018-05-03T04:55:07.404Z,828.00
2018-05-03T04:56:07.330Z,860.00
2018-05-03T04:58:00.625Z,908.00
2018-05-03T04:59:00.473Z,968.00
2018-05-03T05:00:53.521Z,1112.00
2018-05-03T05:01:53.482Z,1200.00
2018-05-03T05:03:46.906Z,1284.00
2018-05-03T05:04:46.692Z,1308.00
2018-05-03T05:06:39.621Z,1400.00
2018-05-03T05:07:39.561Z,1448.00
2018-05-03T05:09:32.559Z,1524.00
2018-05-03T05:10:32.593Z,1520.00
2018-05-03T05:12:25.346Z,1536.00
2018-05-03T05:13:25.280Z,1552.00
2018-05-03T05:15:18.210Z,1600.00
2018-05-03T05:16:18.052Z,1624.00
2018-05-03T05:18:11.068Z,1652.00
2018-05-03T05:19:11.002Z,1680.00
2018-05-03T05:21:03.979Z,1748.00
2018-05-03T05:22:03.969Z,1796.00
2018-05-03T05:23:57.175Z,1868.00
2018-05-03T05:24:57.066Z,1860.00
2018-05-03T05:26:50.035Z,1836.00
2018-05-03T05:27:49.982Z,1840.00
2018-05-03T05:29:42.787Z,1892.00
2018-05-03T05:30:42.783Z,1904.00
2018-05-03T05:32:35.991Z,1980.00
2018-05-03T05:33:35.872Z,1988.00
2018-05-03T05:35:28.840Z,1904.00
2018-05-03T05:36:28.824Z,1920.00
2018-05-03T05:38:21.795Z,1880.00
2018-05-03T05:39:21.747Z,1892.00
2018-05-03T05:41:14.780Z,1952.00
2018-05-03T05:42:14.633Z,1984.00
2018-05-03T05:44:07.637Z,2124.00
2018-05-03T05:45:07.567Z,2132.00
2018-05-03T05:47:00.571Z,2124.00
2018-05-03T05:48:00.560Z,2136.00
2018-05-03T05:49:53.327Z,2180.00
2018-05-03T05:50:53.445Z,2228.00
2018-05-03T05:52:46.366Z,2236.00
2018-05-03T05:53:46.286Z,2268.00
2018-05-03T05:55:39.103Z,2324.00
2018-05-03T05:56:39.159Z,2428.00
2018-05-03T05:58:32.356Z,2452.00
2018-05-03T05:59:32.288Z,2492.00
2018-05-03T06:01:25.283Z,2616.00
2018-05-03T06:02:25.244Z,2660.00
2018-05-03T06:04:18.303Z,2704.00
2018-05-03T06:05:18.196Z,2716.00
2018-05-03T06:07:10.988Z,2704.00
2018-05-03T06:08:10.955Z,2760.00
2018-05-03T06:10:03.818Z,2752.00
2018-05-03T06:11:03.752Z,2692.00
2018-05-03T06:12:56.765Z,2720.00
2018-05-03T06:13:56.683Z,2704.00
2018-05-03T06:15:49.659Z,2628.00
2018-05-03T06:16:49.857Z,2596.00
2018-05-03T06:18:42.923Z,2548.00
2018-05-03T06:19:42.688Z,2512.00
2018-05-03T06:21:35.655Z,2500.00
2018-05-03T06:22:35.614Z,2512.00
2018-05-03T06:24:28.594Z,2608.00
2018-05-03T06:25:28.613Z,2760.00
2018-05-03T06:27:21.374Z,2808.00
2018-05-03T06:28:21.339Z,2808.00
2018-05-03T06:30:14.196Z,2824.00
2018-05-03T06:31:14.130Z,2832.00
2018-05-03T06:33:07.108Z,2816.00
2018-05-03T06:34:07.082Z,2780.00
2018-05-03T06:36:00.068Z,2728.00
2018-05-03T06:37:00.014Z,2740.00
2018-05-03T06:38:52.827Z,2756.00
2018-05-03T06:39:52.801Z,2728.00
2018-05-03T06:41:45.918Z,2700.00
2018-05-03T06:42:45.618Z,2680.00
2018-05-03T06:44:38.667Z,2668.00
2018-05-03T06:45:38.606Z,2664.00
2018-05-03T06:47:31.590Z,2676.00
2018-05-03T06:48:31.557Z,2660.00
2018-05-03T06:50:24.748Z,2664.00
2018-05-03T06:51:24.755Z,2704.00
2018-05-03T06:53:17.768Z,2764.00
2018-05-03T06:54:17.793Z,2732.00
2018-05-03T06:56:10.968Z,2684.00
2018-05-03T06:57:10.932Z,2664.00
2018-05-03T06:59:03.988Z,2680.00
2018-05-03T07:00:04.032Z,2684.00
2018-05-03T07:01:57.202Z,2840.00
2018-05-03T07:02:57.136Z,2952.00
2018-05-03T07:04:50.143Z,3068.00
2018-05-03T07:05:50.089Z,3084.00
2018-05-03T07:07:43.439Z,2964.00
2018-05-03T07:08:43.324Z,2964.00
2018-05-03T07:10:36.237Z,3064.00
2018-05-03T07:11:36.140Z,3080.00
2018-05-03T07:13:29.163Z,3164.00
2018-05-03T07:14:29.106Z,3140.00
2018-05-03T07:16:22.180Z,3176.00
2018-05-03T07:17:22.009Z,3252.00
2018-05-03T07:19:15.119Z,3268.00
2018-05-03T07:20:15.076Z,3264.00
2018-05-03T07:22:08.121Z,3312.00
2018-05-03T07:23:08.046Z,3288.00
2018-05-03T07:25:01.172Z,3276.00
2018-05-03T07:26:01.124Z,3392.00
2018-05-03T07:27:54.201Z,3696.00
2018-05-03T07:28:54.119Z,3856.00
2018-05-03T07:30:48.316Z,3928.00
2018-05-03T07:31:48.135Z,4068.00
2018-05-03T07:33:41.168Z,4356.00
2018-05-03T07:34:41.164Z,4364.00
2018-05-03T07:36:34.124Z,4244.00
2018-05-03T07:37:34.090Z,4216.00
2018-05-03T07:39:26.979Z,4260.00
2018-05-03T07:40:26.920Z,4368.00
2018-05-03T07:42:19.955Z,4244.00
2018-05-03T07:43:19.914Z,4296.00
2018-05-03T07:45:13.029Z,4592.00
2018-05-03T07:46:13.099Z,4664.00
2018-05-03T07:48:06.060Z,4852.00
2018-05-03T07:49:05.874Z,5052.00
2018-05-03T07:50:58.819Z,5400.00
2018-05-03T07:51:58.779Z,5380.00
2018-05-03T07:53:51.818Z,5428.00
2018-05-03T07:54:51.744Z,5360.00
2018-05-03T07:56:44.831Z,5144.00
2018-05-03T07:57:44.658Z,4972.00
2018-05-03T07:59:37.970Z,4856.00
2018-05-03T08:00:37.582Z,4844.00
2018-05-03T08:02:30.654Z,4848.00
2018-05-03T08:03:30.614Z,4852.00
2018-05-03T08:05:23.464Z,4628.00
2018-05-03T08:06:23.412Z,4632.00
2018-05-03T08:08:16.458Z,4616.00
2018-05-03T08:09:16.400Z,4688.00
2018-05-03T08:11:09.436Z,4784.00
2018-05-03T08:12:09.401Z,4776.00
2018-05-03T08:14:02.583Z,4832.00
2018-05-03T08:15:02.535Z,4860.00
2018-05-03T08:16:55.576Z,4808.00
2018-05-03T08:17:55.527Z,4860.00
2018-05-03T08:19:48.355Z,5072.00
2018-05-03T08:20:48.315Z,5272.00
2018-05-03T08:22:41.530Z,5416.00
2018-05-03T08:23:41.497Z,5732.00
2018-05-03T08:25:34.496Z,6420.00
2018-05-03T08:26:34.435Z,6308.00
2018-05-03T08:28:27.767Z,6532.00
2018-05-03T08:29:27.582Z,6568.00
2018-05-03T08:31:20.573Z,6568.00
2018-05-03T08:32:20.535Z,6536.00
2018-05-03T08:34:13.523Z,6748.00
2018-05-03T08:35:13.462Z,6908.00
2018-05-03T08:37:06.296Z,6792.00
2018-05-03T08:38:06.248Z,6792.00
2018-05-03T08:39:59.199Z,6344.00
2018-05-03T08:40:59.041Z,6296.00
2018-05-03T08:42:52.021Z,6664.00
2018-05-03T08:43:52.001Z,6440.00
2018-05-03T08:45:44.967Z,6592.00
2018-05-03T08:46:44.919Z,6660.00
2018-05-03T08:48:37.956Z,6928.00
2018-05-03T08:49:37.857Z,7124.00
2018-05-03T08:51:30.887Z,7484.00
2018-05-03T08:52:30.839Z,7320.00
2018-05-03T08:54:23.821Z,7332.00
2018-05-03T08:55:23.870Z,7596.00
2018-05-03T08:57:16.695Z,7916.00
2018-05-03T08:58:16.630Z,7972.00
2018-05-03T09:00:09.504Z,7972.00
2018-05-03T09:01:09.406Z,7736.00
2018-05-03T09:03:02.419Z,7748.00
2018-05-03T09:04:02.362Z,7748.00
2018-05-03T09:05:55.382Z,7712.00
2018-05-03T09:06:55.318Z,7580.00
2018-05-03T09:08:48.342Z,7308.00
2018-05-03T09:09:48.162Z,7272.00
2018-05-03T09:11:41.200Z,7380.00
2018-05-03T09:12:41.127Z,7580.00
2018-05-03T09:14:34.118Z,7920.00
2018-05-03T09:15:34.088Z,8088.00
2018-05-03T09:17:27.027Z,8732.00
2018-05-03T09:18:26.976Z,9212.00
2018-05-03T09:20:19.851Z,9032.00
2018-05-03T09:21:19.751Z,9100.00
2018-05-03T09:23:12.745Z,8864.00
2018-05-03T09:24:12.724Z,8752.00
2018-05-03T09:26:05.712Z,8768.00
2018-05-03T09:27:05.654Z,8784.00
2018-05-03T09:28:58.693Z,8832.00
2018-05-03T09:29:58.658Z,8920.00
2018-05-03T09:31:51.700Z,9148.00
2018-05-03T09:32:51.637Z,9088.00
2018-05-03T09:34:44.431Z,9016.00
2018-05-03T09:35:44.393Z,9040.00
2018-05-03T09:37:37.466Z,9008.00
2018-05-03T09:38:37.185Z,9076.00
2018-05-03T09:40:30.142Z,9764.00
2018-05-03T09:41:29.973Z,9948.00
2018-05-03T09:43:23.010Z,10284.00
2018-05-03T09:44:22.938Z,10648.00
2018-05-03T09:46:15.950Z,10408.00
2018-05-03T09:47:15.885Z,10368.00
2018-05-03T09:49:08.688Z,11668.00
2018-05-03T09:50:08.656Z,12580.00
2018-05-03T09:52:01.727Z,32416.00
2018-05-03T09:53:01.637Z,38112.00
2018-05-03T09:54:54.622Z,30784.00
2018-05-03T09:55:54.635Z,39552.00
2018-05-03T09:57:47.927Z,38048.00
2018-05-03T09:58:47.757Z,46816.00
2018-05-03T10:00:40.748Z,38368.00
2018-05-03T10:01:40.724Z,44288.00
2018-05-03T10:03:34.080Z,43072.00
2018-05-03T10:04:33.981Z,45408.00
2018-05-03T10:06:26.988Z,69920.00
2018-05-03T10:07:26.944Z,68064.00
2018-05-03T10:09:19.919Z,63520.00
2018-05-03T10:10:19.913Z,62400.00
2018-05-03T10:12:12.846Z,58784.00
2018-05-03T10:13:12.759Z,56608.00
2018-05-03T10:15:05.792Z,45376.00
2018-05-03T10:16:05.770Z,49504.00
2018-05-03T10:17:58.774Z,39328.00
2018-05-03T10:18:58.750Z,43136.00
2018-05-03T10:20:51.753Z,36544.00
2018-05-03T10:21:51.991Z,34624.00
2018-05-03T10:23:44.650Z,39840.00
2018-05-03T10:24:44.610Z,28736.00
2018-05-03T10:26:37.602Z,30432.00
2018-05-03T10:27:37.579Z,32064.00
2018-05-03T10:29:30.419Z,23456.00
2018-05-03T10:30:30.381Z,25696.00
2018-05-03T10:32:23.384Z,40672.00
2018-05-03T10:33:23.364Z,32448.00
2018-05-03T10:35:16.428Z,43968.00
2018-05-03T10:36:16.443Z,46464.00
2018-05-03T10:38:09.582Z,52160.00
2018-05-03T10:39:09.540Z,54688.00
2018-05-03T10:41:02.610Z,62656.00
2018-05-03T10:42:02.656Z,54784.00
2018-05-03T10:43:55.828Z,85952.00
2018-05-03T10:44:55.748Z,70464.00
2018-05-03T10:46:48.837Z,75008.00
2018-05-03T10:47:48.810Z,74432.00
2018-05-03T10:49:42.073Z,52384.00
2018-05-03T10:50:42.033Z,48736.00
2018-05-03T10:52:35.045Z,63424.00
2018-05-03T10:53:35.034Z,35808.00
2018-05-03T10:55:28.257Z,87488.00
2018-05-03T10:56:28.189Z,65536.00
2018-05-03T10:58:21.237Z,44384.00
2018-05-03T10:59:21.197Z,59936.00
2018-05-03T11:01:14.472Z,72640.00
2018-05-03T11:02:14.341Z,69888.00
2018-05-03T11:04:07.391Z,64800.00
2018-05-03T11:05:07.332Z,49888.00
2018-05-03T11:07:00.664Z,56096.00
2018-05-03T11:08:00.497Z,52384.00
2018-05-03T11:09:53.323Z,43264.00
2018-05-03T11:10:53.308Z,48192.00
2018-05-03T11:12:46.319Z,30304.00
2018-05-03T11:13:46.388Z,39232.00
2018-05-03T11:15:39.557Z,40448.00
2018-05-03T11:16:39.525Z,38720.00
2018-05-03T11:18:32.450Z,33472.00
2018-05-03T11:19:32.433Z,29984.00
2018-05-03T11:21:25.275Z,29536.00
2018-05-03T11:22:25.228Z,28960.00
2018-05-03T11:24:18.063Z,27168.00
2018-05-03T11:25:18.043Z,27392.00
2018-05-03T11:27:11.066Z,26432.00
2018-05-03T11:28:11.037Z,24064.00
2018-05-03T11:30:03.862Z,22944.00
2018-05-03T11:31:03.839Z,25088.00
2018-05-03T11:32:56.896Z,24000.00
2018-05-03T11:33:56.844Z,25728.00
2018-05-03T11:35:49.899Z,23872.00
2018-05-03T11:36:49.867Z,21248.00
2018-05-03T11:38:42.693Z,15868.00
2018-05-03T11:39:42.682Z,18720.00
2018-05-03T11:41:35.703Z,23328.00
2018-05-03T11:42:35.679Z,24544.00
2018-05-03T11:44:28.566Z,22720.00
2018-05-03T11:45:28.519Z,20896.00
2018-05-03T11:47:21.599Z,21664.00
2018-05-03T11:48:21.548Z,23008.00
2018-05-03T11:50:14.400Z,19328.00
2018-05-03T11:51:14.355Z,17696.00
2018-05-03T11:53:07.614Z,20544.00
2018-05-03T11:54:07.559Z,22560.00
2018-05-03T11:56:00.593Z,22880.00
2018-05-03T11:57:00.530Z,21216.00
2018-05-03T11:58:53.358Z,16096.00
2018-05-03T11:59:53.342Z,16160.00
2018-05-03T12:01:46.393Z,20864.00
2018-05-03T12:02:46.209Z,22784.00
2018-05-03T12:04:39.201Z,21632.00
2018-05-03T12:05:39.190Z,19008.00
2018-05-03T12:07:32.259Z,21632.00
2018-05-03T12:08:32.169Z,20928.00
2018-05-03T12:10:25.005Z,19808.00
2018-05-03T12:11:24.984Z,19904.00
2018-05-03T12:13:18.010Z,13832.00
2018-05-03T12:14:17.972Z,13616.00
2018-05-03T12:16:10.973Z,13760.00
2018-05-03T12:17:10.992Z,14876.00
2018-05-03T12:19:04.192Z,11792.00
2018-05-03T12:20:04.138Z,15512.00
2018-05-03T12:21:57.164Z,19648.00
2018-05-03T12:22:57.125Z,18848.00
2018-05-03T12:24:50.386Z,16288.00
2018-05-03T12:25:50.308Z,17024.00
2018-05-03T12:27:43.369Z,19136.00
2018-05-03T12:28:43.336Z,18272.00
2018-05-03T12:30:36.183Z,13332.00
2018-05-03T12:31:36.149Z,14708.00
2018-05-03T12:33:29.198Z,13652.00
2018-05-03T12:34:29.032Z,14588.00
2018-05-03T12:36:21.901Z,14632.00
2018-05-03T12:37:21.857Z,14052.00
2018-05-03T12:39:14.845Z,13876.00
2018-05-03T12:40:14.918Z,14812.00
2018-05-03T12:42:08.095Z,14520.00
2018-05-03T12:43:07.985Z,13076.00
2018-05-03T12:45:00.999Z,15292.00
2018-05-03T12:46:01.015Z,16128.00
2018-05-03T12:47:54.309Z,13416.00
2018-05-03T12:48:54.108Z,14480.00
2018-05-03T12:50:46.988Z,16928.00
2018-05-03T12:51:46.923Z,14700.00
2018-05-03T12:53:40.125Z,12844.00
2018-05-03T12:54:40.100Z,14992.00
2018-05-03T12:56:32.980Z,14264.00
2018-05-03T12:57:32.919Z,13960.00
2018-05-03T12:59:25.953Z,16480.00
2018-05-03T13:00:25.898Z,17088.00
2018-05-03T13:02:18.877Z,16928.00
2018-05-03T13:03:18.900Z,15436.00
2018-05-03T13:05:11.731Z,16928.00
2018-05-03T13:06:11.704Z,17248.00
2018-05-03T13:08:04.670Z,18752.00
2018-05-03T13:09:04.509Z,18080.00
2018-05-03T13:10:57.536Z,18720.00
2018-05-03T13:11:57.466Z,18624.00
2018-05-03T13:13:50.486Z,18848.00
2018-05-03T13:14:50.456Z,18720.00
2018-05-03T13:16:43.355Z,17984.00
2018-05-03T13:17:43.295Z,17888.00
2018-05-03T13:19:36.312Z,16608.00
2018-05-03T13:20:36.266Z,16448.00
2018-05-03T13:22:29.260Z,10932.00
2018-05-03T13:23:29.235Z,9112.00
2018-05-03T13:25:22.354Z,8116.00
2018-05-03T13:26:22.156Z,8388.00
2018-05-03T13:28:15.173Z,12988.00
2018-05-03T13:29:15.140Z,13144.00
2018-05-03T13:31:08.163Z,13164.00
2018-05-03T13:32:08.110Z,13604.00
2018-05-03T13:34:00.951Z,12792.00
2018-05-03T13:35:00.971Z,11936.00
2018-05-03T13:36:53.960Z,10520.00
2018-05-03T13:37:53.913Z,9660.00
2018-05-03T13:39:46.931Z,9672.00
2018-05-03T13:40:46.909Z,8840.00
2018-05-03T13:42:40.080Z,10164.00
2018-05-03T13:43:40.024Z,9188.00
2018-05-03T13:45:33.053Z,7820.00
2018-05-03T13:46:33.071Z,7764.00
2018-05-03T13:48:26.266Z,8436.00
2018-05-03T13:49:26.203Z,10420.00
2018-05-03T13:51:19.265Z,10740.00
2018-05-03T13:52:19.370Z,10708.00
2018-05-03T13:54:12.478Z,12124.00
2018-05-03T13:55:12.307Z,12060.00
2018-05-03T13:57:05.369Z,11292.00
2018-05-03T13:58:05.291Z,10800.00
2018-05-03T13:59:58.295Z,9200.00
2018-05-03T14:00:58.280Z,11680.00
2018-05-03T14:02:51.129Z,10408.00
2018-05-03T14:03:51.095Z,9160.00
2018-05-03T14:05:44.135Z,8172.00
2018-05-03T14:06:44.073Z,9664.00
2018-05-03T14:08:37.262Z,9616.00
2018-05-03T14:09:37.213Z,10412.00
2018-05-03T14:11:30.314Z,11572.00
2018-05-03T14:12:30.292Z,12380.00
2018-05-03T14:14:23.306Z,12760.00
2018-05-03T14:15:23.287Z,12176.00
2018-05-03T14:17:16.546Z,8680.00
2018-05-03T14:18:16.428Z,10936.00
2018-05-03T14:20:09.399Z,12120.00
2018-05-03T14:21:09.412Z,11792.00
2018-05-03T14:23:02.708Z,10196.00
2018-05-03T14:24:02.544Z,11544.00
2018-05-03T14:25:55.587Z,11732.00
2018-05-03T14:26:55.565Z,10288.00
2018-05-03T14:28:48.608Z,10192.00
2018-05-03T14:29:48.540Z,8700.00
2018-05-03T14:31:41.371Z,9624.00
2018-05-03T14:32:41.342Z,10532.00
2018-05-03T14:34:34.368Z,8140.00
2018-05-03T14:35:34.313Z,7560.00
2018-05-03T14:37:27.337Z,8156.00
2018-05-03T14:38:27.300Z,9920.00
2018-05-03T14:40:20.221Z,8152.00
2018-05-03T14:41:20.172Z,9608.00
2018-05-03T14:43:13.173Z,5460.00
2018-05-03T14:44:13.140Z,5136.00
2018-05-03T14:46:06.158Z,6816.00
2018-05-03T14:47:06.173Z,7636.00
2018-05-03T14:48:58.977Z,7596.00
2018-05-03T14:49:58.934Z,9020.00
2018-05-03T14:51:51.933Z,9412.00
2018-05-03T14:52:51.886Z,8432.00
2018-05-03T14:54:44.889Z,6880.00
2018-05-03T14:55:44.856Z,7576.00
2018-05-03T14:57:38.151Z,4676.00
2018-05-03T14:58:38.017Z,8268.00
2018-05-03T15:00:30.970Z,9444.00
2018-05-03T15:01:30.806Z,9512.00
2018-05-03T15:03:23.834Z,9252.00
2018-05-03T15:04:23.805Z,9448.00
2018-05-03T15:06:17.007Z,9312.00
2018-05-03T15:07:16.948Z,9628.00
2018-05-03T15:09:09.783Z,9336.00
2018-05-03T15:10:09.753Z,9476.00
2018-05-03T15:12:02.607Z,9000.00
2018-05-03T15:13:02.693Z,8880.00
2018-05-03T15:14:55.709Z,8772.00
2018-05-03T15:15:55.657Z,9036.00
2018-05-03T15:17:48.686Z,8564.00
2018-05-03T15:18:48.649Z,9168.00
2018-05-03T15:20:41.594Z,8948.00
2018-05-03T15:21:41.443Z,9300.00
2018-05-03T15:23:34.771Z,9112.00
2018-05-03T15:24:34.603Z,8980.00
2018-05-03T15:26:27.664Z,8848.00
2018-05-03T15:27:27.597Z,8880.00
2018-05-03T15:29:20.808Z,8292.00
2018-05-03T15:30:20.709Z,7652.00
2018-05-03T15:32:13.743Z,7500.00
2018-05-03T15:33:13.664Z,7492.00
2018-05-03T15:35:06.501Z,8388.00
2018-05-03T15:36:06.614Z,8568.00
2018-05-03T15:37:59.766Z,9248.00
2018-05-03T15:38:59.614Z,9040.00
2018-05-03T15:40:52.454Z,8968.00
2018-05-03T15:41:52.422Z,8752.00
2018-05-03T15:43:45.425Z,8780.00
2018-05-03T15:44:45.378Z,8688.00
2018-05-03T15:46:38.698Z,8536.00
2018-05-03T15:47:38.679Z,8656.00
2018-05-03T15:49:31.674Z,8552.00
2018-05-03T15:50:31.685Z,8528.00
2018-05-03T15:52:24.887Z,6708.00
2018-05-03T15:53:24.769Z,8224.00
2018-05-03T15:55:17.762Z,8212.00
2018-05-03T15:56:17.729Z,8324.00
2018-05-03T15:58:10.738Z,8332.00
2018-05-03T15:59:10.689Z,8364.00
2018-05-03T16:01:03.703Z,7904.00
2018-05-03T16:02:03.501Z,7672.00
2018-05-03T16:03:56.387Z,7876.00
2018-05-03T16:04:56.350Z,7108.00
2018-05-03T16:06:49.296Z,7324.00
2018-05-03T16:07:49.376Z,7496.00
2018-05-03T16:09:42.569Z,7732.00
2018-05-03T16:10:42.440Z,7740.00
2018-05-03T16:12:35.417Z,8072.00
2018-05-03T16:13:35.376Z,8184.00
2018-05-03T16:15:28.860Z,8132.00
2018-05-03T16:16:28.324Z,7896.00
2018-05-03T16:18:21.229Z,8016.00
2018-05-03T16:19:21.168Z,7880.00
2018-05-03T16:21:14.155Z,7816.00
2018-05-03T16:22:14.159Z,7860.00
2018-05-03T16:24:06.974Z,7316.00
2018-05-03T16:25:07.009Z,7104.00
2018-05-03T16:26:59.916Z,6588.00
2018-05-03T16:27:59.888Z,6996.00
2018-05-03T16:29:52.925Z,6972.00
2018-05-03T16:30:52.745Z,6700.00
2018-05-03T16:32:45.719Z,6664.00
2018-05-03T16:33:45.700Z,6624.00
2018-05-03T16:35:38.718Z,6156.00
2018-05-03T16:36:38.673Z,6228.00
2018-05-03T16:38:31.697Z,5900.00
2018-05-03T16:39:31.522Z,5912.00
2018-05-03T16:41:24.501Z,5748.00
2018-05-03T16:42:24.462Z,5816.00
2018-05-03T16:44:17.471Z,5664.00
2018-05-03T16:45:17.450Z,5708.00
2018-05-03T16:47:10.596Z,5848.00
2018-05-03T16:48:10.584Z,5704.00
2018-05-03T16:50:03.616Z,5608.00
2018-05-03T16:51:03.556Z,5580.00
2018-05-03T16:52:56.766Z,5508.00
2018-05-03T16:53:56.678Z,5520.00
2018-05-03T16:55:49.714Z,5544.00
2018-05-03T16:56:49.635Z,5492.00
2018-05-03T16:58:42.600Z,5328.00
2018-05-03T16:59:42.574Z,5240.00
2018-05-03T17:01:35.527Z,5176.00
2018-05-03T17:02:35.464Z,5140.00
2018-05-03T17:04:28.468Z,5084.00
2018-05-03T17:05:28.451Z,5064.00
2018-05-03T17:07:21.452Z,5000.00
2018-05-03T17:08:21.405Z,4948.00
2018-05-03T17:10:14.275Z,4800.00
2018-05-03T17:11:14.227Z,4752.00
2018-05-03T17:13:07.224Z,4576.00
2018-05-03T17:14:07.045Z,4520.00
2018-05-03T17:16:00.025Z,4524.00
2018-05-03T17:16:59.978Z,4480.00
2018-05-03T17:18:52.980Z,4328.00
2018-05-03T17:19:52.933Z,4244.00
2018-05-03T17:21:45.838Z,4084.00
2018-05-03T17:22:45.782Z,4044.00
2018-05-03T17:24:38.757Z,4004.00
2018-05-03T17:25:38.735Z,3940.00
2018-05-03T17:27:31.742Z,3776.00
2018-05-03T17:28:31.689Z,3716.00
2018-05-03T17:30:24.879Z,3612.00
2018-05-03T17:31:24.816Z,3540.00
2018-05-03T17:33:17.838Z,3344.00
2018-05-03T17:34:17.789Z,3324.00
2018-05-03T17:36:10.781Z,3200.00
2018-05-03T17:37:10.791Z,3148.00
2018-05-03T17:39:03.677Z,2912.00
2018-05-03T17:40:03.548Z,2796.00
2018-05-03T17:41:56.410Z,2816.00